Hot Springs, Montana
Current Conditions -  °F | °C
As of 1:08 AM on Thursday 18 Dec 2014 (Local Time) from KMLP Reporting Station
Light Snow Light Snow  
Wind Chill: -6°   Ceiling: 200
Heat Index: -3°   Visibility: 1mi
Dew Point: -3°   Wind: 5mph
Humidity: 100%   Direction: NA
Pressure: 29.89"   Gusts: NA
Location:  47.61°N, 114.67°W
Report Text: KMLP 180808Z AUTO VRB04KT 1SM -SN BR VV002 M03/M03 A2989 RMK AO2 VIS 1/2V1 3/4 SNB01 P0000 T10281028
Loading
Personal Weather Stations






























Interactive Weather Map New forecast layout! Learn more

10-Day Weather Forecast

Advertisements
Track Severe Weather on mobile